sensor_id;sensor_type;location;lat;lon;timestamp;P1;durP1;ratioP1;P2;durP2;ratioP2
51995;SDS011;38010;53.264;6.592;2022-07-04T00:01:53;0.50;;;0.50;;
51995;SDS011;38010;53.264;6.592;2022-07-04T00:04:18;0.60;;;0.50;;
51995;SDS011;38010;53.264;6.592;2022-07-04T00:06:46;1.25;;;0.60;;
51995;SDS011;38010;53.264;6.592;2022-07-04T00:09:12;0.88;;;0.60;;
51995;SDS011;38010;53.264;6.592;2022-07-04T00:11:38;1.35;;;0.65;;
51995;SDS011;38010;53.264;6.592;2022-07-04T00:14:04;0.90;;;0.50;;
51995;SDS011;38010;53.264;6.592;2022-07-04T00:16:32;1.45;;;0.60;;
51995;SDS011;38010;53.264;6.592;2022-07-04T00:19:00;1.20;;;0.60;;
51995;SDS011;38010;53.264;6.592;2022-07-04T00:21:27;2.03;;;0.70;;
51995;SDS011;38010;53.264;6.592;2022-07-04T00:23:53;0.60;;;0.50;;
51995;SDS011;38010;53.264;6.592;2022-07-04T00:26:21;1.00;;;0.70;;
51995;SDS011;38010;53.264;6.592;2022-07-04T00:28:47;0.90;;;0.50;;
51995;SDS011;38010;53.264;6.592;2022-07-04T00:31:13;0.50;;;0.50;;
51995;SDS011;38010;53.264;6.592;2022-07-04T00:33:39;0.73;;;0.60;;
51995;SDS011;38010;53.264;6.592;2022-07-04T00:36:06;0.80;;;0.70;;
51995;SDS011;38010;53.264;6.592;2022-07-04T00:38:32;1.80;;;0.70;;
51995;SDS011;38010;53.264;6.592;2022-07-04T00:40:58;0.68;;;0.68;;
51995;SDS011;38010;53.264;6.592;2022-07-04T00:43:25;0.70;;;0.50;;
51995;SDS011;38010;53.264;6.592;2022-07-04T00:45:52;1.10;;;0.60;;
51995;SDS011;38010;53.264;6.592;2022-07-04T00:48:18;0.57;;;0.57;;
51995;SDS011;38010;53.264;6.592;2022-07-04T00:50:45;0.88;;;0.55;;
51995;SDS011;38010;53.264;6.592;2022-07-04T00:53:13;3.05;;;0.50;;
51995;SDS011;38010;53.264;6.592;2022-07-04T00:55:40;0.85;;;0.50;;
51995;SDS011;38010;53.264;6.592;2022-07-04T00:58:07;0.40;;;0.40;;
51995;SDS011;38010;53.264;6.592;2022-07-04T01:00:34;2.03;;;0.77;;
51995;SDS011;38010;53.264;6.592;2022-07-04T01:03:01;0.73;;;0.60;;
51995;SDS011;38010;53.264;6.592;2022-07-04T01:05:30;0.73;;;0.60;;
51995;SDS011;38010;53.264;6.592;2022-07-04T01:07:56;1.10;;;0.60;;
51995;SDS011;38010;53.264;6.592;2022-07-04T01:10:23;0.60;;;0.45;;
51995;SDS011;38010;53.264;6.592;2022-07-04T01:12:49;0.50;;;0.50;;
51995;SDS011;38010;53.264;6.592;2022-07-04T01:15:15;0.93;;;0.63;;
51995;SDS011;38010;53.264;6.592;2022-07-04T01:17:42;0.60;;;0.50;;
51995;SDS011;38010;53.264;6.592;2022-07-04T01:20:12;0.40;;;0.40;;
51995;SDS011;38010;53.264;6.592;2022-07-04T01:22:41;0.55;;;0.55;;
51995;SDS011;38010;53.264;6.592;2022-07-04T01:25:08;1.58;;;0.60;;
51995;SDS011;38010;53.264;6.592;2022-07-04T01:27:37;0.63;;;0.50;;
51995;SDS011;38010;53.264;6.592;2022-07-04T01:30:03;0.50;;;0.40;;
51995;SDS011;38010;53.264;6.592;2022-07-04T01:32:30;0.50;;;0.40;;
51995;SDS011;38010;53.264;6.592;2022-07-04T01:34:58;0.60;;;0.45;;
51995;SDS011;38010;53.264;6.592;2022-07-04T01:37:24;0.70;;;0.40;;
51995;SDS011;38010;53.264;6.592;2022-07-04T01:39:50;1.65;;;0.63;;
51995;SDS011;38010;53.264;6.592;2022-07-04T01:42:16;0.40;;;0.40;;
51995;SDS011;38010;53.264;6.592;2022-07-04T01:44:42;0.65;;;0.52;;
51995;SDS011;38010;53.264;6.592;2022-07-04T01:47:08;0.90;;;0.60;;
51995;SDS011;38010;53.264;6.592;2022-07-04T01:49:34;1.35;;;0.50;;
51995;SDS011;38010;53.264;6.592;2022-07-04T01:52:01;0.98;;;0.50;;
51995;SDS011;38010;53.264;6.592;2022-07-04T01:54:28;0.63;;;0.50;;
51995;SDS011;38010;53.264;6.592;2022-07-04T01:56:54;0.52;;;0.47;;
51995;SDS011;38010;53.264;6.592;2022-07-04T01:59:20;1.23;;;0.50;;
51995;SDS011;38010;53.264;6.592;2022-07-04T02:02:10;0.50;;;0.40;;
51995;SDS011;38010;53.264;6.592;2022-07-04T02:04:36;0.60;;;0.47;;
51995;SDS011;38010;53.264;6.592;2022-07-04T02:07:02;0.68;;;0.50;;
51995;SDS011;38010;53.264;6.592;2022-07-04T02:09:28;1.10;;;0.50;;
51995;SDS011;38010;53.264;6.592;2022-07-04T02:11:56;1.05;;;0.57;;
51995;SDS011;38010;53.264;6.592;2022-07-04T02:14:42;0.80;;;0.52;;
51995;SDS011;38010;53.264;6.592;2022-07-04T02:17:09;0.73;;;0.50;;
51995;SDS011;38010;53.264;6.592;2022-07-04T02:19:36;0.40;;;0.40;;
51995;SDS011;38010;53.264;6.592;2022-07-04T02:22:02;0.38;;;0.38;;
51995;SDS011;38010;53.264;6.592;2022-07-04T02:24:28;0.63;;;0.40;;
51995;SDS011;38010;53.264;6.592;2022-07-04T02:26:57;0.50;;;0.50;;
51995;SDS011;38010;53.264;6.592;2022-07-04T02:29:23;0.70;;;0.60;;
51995;SDS011;38010;53.264;6.592;2022-07-04T02:31:49;1.00;;;0.50;;
51995;SDS011;38010;53.264;6.592;2022-07-04T02:34:17;0.40;;;0.40;;
51995;SDS011;38010;53.264;6.592;2022-07-04T02:36:43;0.63;;;0.50;;
51995;SDS011;38010;53.264;6.592;2022-07-04T02:39:09;1.23;;;0.57;;
51995;SDS011;38010;53.264;6.592;2022-07-04T02:41:35;0.50;;;0.47;;
51995;SDS011;38010;53.264;6.592;2022-07-04T02:44:02;0.70;;;0.43;;
51995;SDS011;38010;53.264;6.592;2022-07-04T02:46:29;0.40;;;0.40;;
51995;SDS011;38010;53.264;6.592;2022-07-04T02:49:07;0.40;;;0.40;;
51995;SDS011;38010;53.264;6.592;2022-07-04T02:51:33;2.15;;;0.40;;
51995;SDS011;38010;53.264;6.592;2022-07-04T02:53:59;1.48;;;0.40;;
51995;SDS011;38010;53.264;6.592;2022-07-04T02:56:25;0.75;;;0.60;;
51995;SDS011;38010;53.264;6.592;2022-07-04T02:58:51;0.70;;;0.43;;
51995;SDS011;38010;53.264;6.592;2022-07-04T03:01:17;0.73;;;0.50;;
51995;SDS011;38010;53.264;6.592;2022-07-04T03:03:45;1.20;;;0.60;;
51995;SDS011;38010;53.264;6.592;2022-07-04T03:06:13;1.05;;;0.43;;
51995;SDS011;38010;53.264;6.592;2022-07-04T03:08:40;2.78;;;0.80;;
51995;SDS011;38010;53.264;6.592;2022-07-04T03:11:08;0.40;;;0.40;;
51995;SDS011;38010;53.264;6.592;2022-07-04T03:13:35;0.70;;;0.60;;
51995;SDS011;38010;53.264;6.592;2022-07-04T03:16:02;0.40;;;0.40;;
51995;SDS011;38010;53.264;6.592;2022-07-04T03:18:28;2.10;;;0.55;;
51995;SDS011;38010;53.264;6.592;2022-07-04T03:20:54;1.10;;;0.50;;
51995;SDS011;38010;53.264;6.592;2022-07-04T03:23:20;1.02;;;0.50;;
51995;SDS011;38010;53.264;6.592;2022-07-04T03:25:46;0.45;;;0.40;;
51995;SDS011;38010;53.264;6.592;2022-07-04T03:28:12;1.00;;;0.60;;
51995;SDS011;38010;53.264;6.592;2022-07-04T03:30:38;0.80;;;0.50;;
51995;SDS011;38010;53.264;6.592;2022-07-04T03:33:06;0.63;;;0.50;;
51995;SDS011;38010;53.264;6.592;2022-07-04T03:35:32;0.47;;;0.40;;
51995;SDS011;38010;53.264;6.592;2022-07-04T03:37:58;0.70;;;0.43;;
51995;SDS011;38010;53.264;6.592;2022-07-04T03:40:24;1.20;;;0.43;;
51995;SDS011;38010;53.264;6.592;2022-07-04T03:42:51;0.75;;;0.40;;
51995;SDS011;38010;53.264;6.592;2022-07-04T03:45:17;0.80;;;0.50;;
51995;SDS011;38010;53.264;6.592;2022-07-04T03:47:43;0.50;;;0.50;;
51995;SDS011;38010;53.264;6.592;2022-07-04T03:50:09;0.80;;;0.50;;
51995;SDS011;38010;53.264;6.592;2022-07-04T03:52:35;0.70;;;0.57;;
51995;SDS011;38010;53.264;6.592;2022-07-04T03:55:01;0.47;;;0.45;;
51995;SDS011;38010;53.264;6.592;2022-07-04T03:57:27;0.65;;;0.50;;
51995;SDS011;38010;53.264;6.592;2022-07-04T03:59:53;0.80;;;0.50;;
51995;SDS011;38010;53.264;6.592;2022-07-04T04:02:21;1.58;;;0.65;;
51995;SDS011;38010;53.264;6.592;2022-07-04T04:04:47;1.58;;;0.60;;
51995;SDS011;38010;53.264;6.592;2022-07-04T04:07:32;1.63;;;0.52;;
51995;SDS011;38010;53.264;6.592;2022-07-04T04:09:58;0.77;;;0.65;;
51995;SDS011;38010;53.264;6.592;2022-07-04T04:12:24;0.93;;;0.50;;
51995;SDS011;38010;53.264;6.592;2022-07-04T04:14:50;1.65;;;0.70;;
51995;SDS011;38010;53.264;6.592;2022-07-04T04:17:16;0.90;;;0.50;;
51995;SDS011;38010;53.264;6.592;2022-07-04T04:19:42;0.63;;;0.52;;
51995;SDS011;38010;53.264;6.592;2022-07-04T04:22:09;2.20;;;0.60;;
51995;SDS011;38010;53.264;6.592;2022-07-04T04:24:35;0.60;;;0.47;;
51995;SDS011;38010;53.264;6.592;2022-07-04T04:27:01;0.68;;;0.52;;
51995;SDS011;38010;53.264;6.592;2022-07-04T04:29:28;0.60;;;0.50;;
51995;SDS011;38010;53.264;6.592;2022-07-04T04:31:54;0.60;;;0.47;;
51995;SDS011;38010;53.264;6.592;2022-07-04T04:34:20;0.75;;;0.50;;
51995;SDS011;38010;53.264;6.592;2022-07-04T04:36:46;1.42;;;0.50;;
51995;SDS011;38010;53.264;6.592;2022-07-04T04:39:12;0.93;;;0.50;;
51995;SDS011;38010;53.264;6.592;2022-07-04T04:41:39;0.98;;;0.50;;
51995;SDS011;38010;53.264;6.592;2022-07-04T04:44:05;1.02;;;0.50;;
51995;SDS011;38010;53.264;6.592;2022-07-04T04:46:32;1.10;;;0.55;;
51995;SDS011;38010;53.264;6.592;2022-07-04T04:49:00;1.65;;;0.60;;
51995;SDS011;38010;53.264;6.592;2022-07-04T04:51:26;1.13;;;0.60;;
51995;SDS011;38010;53.264;6.592;2022-07-04T04:53:52;0.85;;;0.60;;
51995;SDS011;38010;53.264;6.592;2022-07-04T04:56:18;0.75;;;0.60;;
51995;SDS011;38010;53.264;6.592;2022-07-04T04:58:44;0.68;;;0.45;;
51995;SDS011;38010;53.264;6.592;2022-07-04T05:01:13;0.68;;;0.50;;
51995;SDS011;38010;53.264;6.592;2022-07-04T05:03:39;0.75;;;0.50;;
51995;SDS011;38010;53.264;6.592;2022-07-04T05:06:07;1.20;;;0.60;;
51995;SDS011;38010;53.264;6.592;2022-07-04T05:08:37;1.73;;;0.70;;
51995;SDS011;38010;53.264;6.592;2022-07-04T05:11:03;0.95;;;0.40;;
51995;SDS011;38010;53.264;6.592;2022-07-04T05:13:32;0.98;;;0.60;;
51995;SDS011;38010;53.264;6.592;2022-07-04T05:15:57;0.57;;;0.50;;
51995;SDS011;38010;53.264;6.592;2022-07-04T05:18:23;0.73;;;0.50;;
51995;SDS011;38010;53.264;6.592;2022-07-04T05:20:51;1.17;;;0.50;;
51995;SDS011;38010;53.264;6.592;2022-07-04T05:23:18;227.43;;;82.93;;
51995;SDS011;38010;53.264;6.592;2022-07-04T05:25:44;106.00;;;42.58;;
51995;SDS011;38010;53.264;6.592;2022-07-04T05:28:10;107.65;;;41.45;;
51995;SDS011;38010;53.264;6.592;2022-07-04T05:30:36;90.25;;;35.67;;
51995;SDS011;38010;53.264;6.592;2022-07-04T05:33:02;83.28;;;34.70;;
51995;SDS011;38010;53.264;6.592;2022-07-04T05:35:28;90.13;;;34.25;;
51995;SDS011;38010;53.264;6.592;2022-07-04T05:37:57;70.38;;;27.40;;
51995;SDS011;38010;53.264;6.592;2022-07-04T05:40:23;80.80;;;34.30;;
51995;SDS011;38010;53.264;6.592;2022-07-04T05:42:49;72.57;;;29.17;;
51995;SDS011;38010;53.264;6.592;2022-07-04T05:45:15;75.22;;;28.30;;
51995;SDS011;38010;53.264;6.592;2022-07-04T05:47:44;66.10;;;27.15;;
51995;SDS011;38010;53.264;6.592;2022-07-04T05:50:11;61.40;;;26.20;;
51995;SDS011;38010;53.264;6.592;2022-07-04T05:52:37;55.55;;;25.38;;
51995;SDS011;38010;53.264;6.592;2022-07-04T05:55:07;57.45;;;24.63;;
51995;SDS011;38010;53.264;6.592;2022-07-04T05:57:34;61.40;;;24.52;;
51995;SDS011;38010;53.264;6.592;2022-07-04T06:00:00;49.05;;;23.58;;
51995;SDS011;38010;53.264;6.592;2022-07-04T06:02:28;50.75;;;23.73;;
51995;SDS011;38010;53.264;6.592;2022-07-04T06:04:54;41.55;;;20.42;;
51995;SDS011;38010;53.264;6.592;2022-07-04T06:07:19;42.33;;;19.35;;
51995;SDS011;38010;53.264;6.592;2022-07-04T06:09:45;40.42;;;18.60;;
51995;SDS011;38010;53.264;6.592;2022-07-04T06:12:11;45.88;;;19.25;;
51995;SDS011;38010;53.264;6.592;2022-07-04T06:14:37;38.78;;;17.83;;
51995;SDS011;38010;53.264;6.592;2022-07-04T06:17:03;38.53;;;18.23;;
51995;SDS011;38010;53.264;6.592;2022-07-04T06:19:29;35.08;;;16.30;;
51995;SDS011;38010;53.264;6.592;2022-07-04T06:21:54;35.47;;;17.20;;
51995;SDS011;38010;53.264;6.592;2022-07-04T06:24:21;30.75;;;13.20;;
51995;SDS011;38010;53.264;6.592;2022-07-04T06:26:47;25.48;;;11.02;;
51995;SDS011;38010;53.264;6.592;2022-07-04T06:29:13;26.42;;;9.93;;
51995;SDS011;38010;53.264;6.592;2022-07-04T06:31:39;15.30;;;6.82;;
51995;SDS011;38010;53.264;6.592;2022-07-04T06:34:05;17.75;;;6.55;;
51995;SDS011;38010;53.264;6.592;2022-07-04T06:36:51;13.13;;;5.47;;
51995;SDS011;38010;53.264;6.592;2022-07-04T06:39:19;10.05;;;3.83;;
51995;SDS011;38010;53.264;6.592;2022-07-04T06:41:45;11.90;;;4.38;;
51995;SDS011;38010;53.264;6.592;2022-07-04T06:44:11;8.77;;;4.20;;
51995;SDS011;38010;53.264;6.592;2022-07-04T06:46:36;10.18;;;4.13;;
51995;SDS011;38010;53.264;6.592;2022-07-04T06:49:02;7.60;;;3.28;;
51995;SDS011;38010;53.264;6.592;2022-07-04T06:51:28;9.55;;;3.60;;
51995;SDS011;38010;53.264;6.592;2022-07-04T06:53:54;8.73;;;3.30;;
51995;SDS011;38010;53.264;6.592;2022-07-04T06:56:19;6.20;;;2.85;;
51995;SDS011;38010;53.264;6.592;2022-07-04T06:58:45;6.75;;;2.88;;
51995;SDS011;38010;53.264;6.592;2022-07-04T07:01:11;10.85;;;3.55;;
51995;SDS011;38010;53.264;6.592;2022-07-04T07:03:37;8.50;;;3.00;;
51995;SDS011;38010;53.264;6.592;2022-07-04T07:06:02;5.95;;;2.80;;
51995;SDS011;38010;53.264;6.592;2022-07-04T07:08:28;5.90;;;2.53;;
51995;SDS011;38010;53.264;6.592;2022-07-04T07:10:58;6.53;;;2.10;;
51995;SDS011;38010;53.264;6.592;2022-07-04T07:13:40;5.22;;;2.40;;
51995;SDS011;38010;53.264;6.592;2022-07-04T07:16:07;8.25;;;2.83;;
51995;SDS011;38010;53.264;6.592;2022-07-04T07:18:32;4.68;;;2.65;;
51995;SDS011;38010;53.264;6.592;2022-07-04T07:20:58;6.63;;;2.70;;
51995;SDS011;38010;53.264;6.592;2022-07-04T07:23:24;7.88;;;2.40;;
51995;SDS011;38010;53.264;6.592;2022-07-04T07:25:49;3.30;;;1.38;;
51995;SDS011;38010;53.264;6.592;2022-07-04T07:28:15;9.60;;;2.03;;
51995;SDS011;38010;53.264;6.592;2022-07-04T07:30:41;5.95;;;1.60;;
51995;SDS011;38010;53.264;6.592;2022-07-04T07:33:07;3.78;;;1.38;;
51995;SDS011;38010;53.264;6.592;2022-07-04T07:35:32;5.07;;;2.00;;
51995;SDS011;38010;53.264;6.592;2022-07-04T07:37:58;3.75;;;1.50;;
51995;SDS011;38010;53.264;6.592;2022-07-04T07:40:24;5.70;;;1.70;;
51995;SDS011;38010;53.264;6.592;2022-07-04T07:42:50;2.97;;;1.40;;
51995;SDS011;38010;53.264;6.592;2022-07-04T07:45:16;5.38;;;2.10;;
51995;SDS011;38010;53.264;6.592;2022-07-04T07:47:41;3.08;;;1.60;;
51995;SDS011;38010;53.264;6.592;2022-07-04T07:50:07;3.65;;;1.55;;
51995;SDS011;38010;53.264;6.592;2022-07-04T07:52:34;3.38;;;1.52;;
51995;SDS011;38010;53.264;6.592;2022-07-04T07:55:00;4.20;;;1.65;;
51995;SDS011;38010;53.264;6.592;2022-07-04T07:57:25;4.47;;;1.52;;
51995;SDS011;38010;53.264;6.592;2022-07-04T07:59:51;6.30;;;1.50;;
51995;SDS011;38010;53.264;6.592;2022-07-04T08:02:17;4.30;;;1.38;;
51995;SDS011;38010;53.264;6.592;2022-07-04T08:04:43;2.38;;;1.20;;
51995;SDS011;38010;53.264;6.592;2022-07-04T08:07:10;2.92;;;1.20;;
51995;SDS011;38010;53.264;6.592;2022-07-04T08:09:39;2.63;;;1.10;;
51995;SDS011;38010;53.264;6.592;2022-07-04T08:12:06;3.22;;;1.08;;
51995;SDS011;38010;53.264;6.592;2022-07-04T08:14:33;3.22;;;1.48;;
51995;SDS011;38010;53.264;6.592;2022-07-04T08:17:00;3.50;;;1.20;;
51995;SDS011;38010;53.264;6.592;2022-07-04T08:19:26;4.22;;;1.23;;
51995;SDS011;38010;53.264;6.592;2022-07-04T08:21:53;2.92;;;1.20;;
51995;SDS011;38010;53.264;6.592;2022-07-04T08:24:20;2.78;;;0.93;;
51995;SDS011;38010;53.264;6.592;2022-07-04T08:26:47;2.67;;;1.10;;
51995;SDS011;38010;53.264;6.592;2022-07-04T08:29:13;3.03;;;1.30;;
51995;SDS011;38010;53.264;6.592;2022-07-04T08:31:41;2.80;;;1.17;;
51995;SDS011;38010;53.264;6.592;2022-07-04T08:34:08;1.98;;;1.00;;
51995;SDS011;38010;53.264;6.592;2022-07-04T08:36:34;2.80;;;1.20;;
51995;SDS011;38010;53.264;6.592;2022-07-04T08:39:03;1.23;;;1.00;;
51995;SDS011;38010;53.264;6.592;2022-07-04T08:41:32;1.95;;;1.20;;
51995;SDS011;38010;53.264;6.592;2022-07-04T08:44:04;3.17;;;1.20;;
51995;SDS011;38010;53.264;6.592;2022-07-04T08:46:33;2.42;;;1.20;;
51995;SDS011;38010;53.264;6.592;2022-07-04T08:49:02;2.70;;;0.90;;
51995;SDS011;38010;53.264;6.592;2022-07-04T08:52:07;2.80;;;1.05;;
51995;SDS011;38010;53.264;6.592;2022-07-04T08:54:36;4.43;;;1.23;;
51995;SDS011;38010;53.264;6.592;2022-07-04T08:57:23;1.45;;;1.00;;
51995;SDS011;38010;53.264;6.592;2022-07-04T09:00:10;2.08;;;1.00;;
51995;SDS011;38010;53.264;6.592;2022-07-04T09:02:36;1.90;;;0.90;;
51995;SDS011;38010;53.264;6.592;2022-07-04T09:05:03;5.10;;;1.10;;
51995;SDS011;38010;53.264;6.592;2022-07-04T09:07:32;3.33;;;1.20;;
51995;SDS011;38010;53.264;6.592;2022-07-04T09:09:58;3.03;;;1.20;;
51995;SDS011;38010;53.264;6.592;2022-07-04T09:12:25;2.78;;;0.90;;
51995;SDS011;38010;53.264;6.592;2022-07-04T09:14:50;2.33;;;0.98;;
51995;SDS011;38010;53.264;6.592;2022-07-04T09:17:17;1.98;;;1.00;;
51995;SDS011;38010;53.264;6.592;2022-07-04T09:19:43;1.67;;;0.90;;
51995;SDS011;38010;53.264;6.592;2022-07-04T09:22:09;3.55;;;1.10;;
51995;SDS011;38010;53.264;6.592;2022-07-04T09:24:43;1.55;;;0.93;;
51995;SDS011;38010;53.264;6.592;2022-07-04T09:27:11;2.20;;;0.80;;
51995;SDS011;38010;53.264;6.592;2022-07-04T09:29:53;2.08;;;0.80;;
51995;SDS011;38010;53.264;6.592;2022-07-04T09:32:23;1.63;;;0.90;;
51995;SDS011;38010;53.264;6.592;2022-07-04T09:34:58;2.10;;;0.75;;
51995;SDS011;38010;53.264;6.592;2022-07-04T09:40:07;3.20;;;0.82;;
51995;SDS011;38010;53.264;6.592;2022-07-04T09:42:38;0.90;;;0.70;;
51995;SDS011;38010;53.264;6.592;2022-07-04T09:45:06;2.88;;;0.73;;
51995;SDS011;38010;53.264;6.592;2022-07-04T09:47:40;3.30;;;1.07;;
51995;SDS011;38010;53.264;6.592;2022-07-04T09:52:47;1.35;;;0.70;;
51995;SDS011;38010;53.264;6.592;2022-07-04T09:55:19;2.08;;;0.80;;
51995;SDS011;38010;53.264;6.592;2022-07-04T09:57:57;1.10;;;0.80;;
51995;SDS011;38010;53.264;6.592;2022-07-04T10:00:25;2.45;;;1.02;;
51995;SDS011;38010;53.264;6.592;2022-07-04T10:02:52;1.15;;;0.73;;
51995;SDS011;38010;53.264;6.592;2022-07-04T10:05:28;1.98;;;1.00;;
51995;SDS011;38010;53.264;6.592;2022-07-04T10:07:55;3.83;;;1.00;;
51995;SDS011;38010;53.264;6.592;2022-07-04T10:13:04;2.25;;;0.77;;
51995;SDS011;38010;53.264;6.592;2022-07-04T10:15:32;2.33;;;0.95;;
51995;SDS011;38010;53.264;6.592;2022-07-04T10:17:59;1.30;;;0.63;;
51995;SDS011;38010;53.264;6.592;2022-07-04T10:20:25;2.20;;;0.80;;
51995;SDS011;38010;53.264;6.592;2022-07-04T10:22:51;1.17;;;0.80;;
51995;SDS011;38010;53.264;6.592;2022-07-04T10:25:17;1.20;;;0.70;;
51995;SDS011;38010;53.264;6.592;2022-07-04T10:27:44;2.15;;;0.77;;
51995;SDS011;38010;53.264;6.592;2022-07-04T10:30:14;3.38;;;0.80;;
51995;SDS011;38010;53.264;6.592;2022-07-04T10:32:43;3.75;;;0.90;;
51995;SDS011;38010;53.264;6.592;2022-07-04T10:35:12;1.75;;;0.75;;
51995;SDS011;38010;53.264;6.592;2022-07-04T10:40:41;1.15;;;0.73;;
51995;SDS011;38010;53.264;6.592;2022-07-04T10:48:56;1.73;;;0.70;;
51995;SDS011;38010;53.264;6.592;2022-07-04T10:54:34;1.75;;;0.80;;
51995;SDS011;38010;53.264;6.592;2022-07-04T11:00:01;1.00;;;0.70;;
51995;SDS011;38010;53.264;6.592;2022-07-04T11:02:31;0.85;;;0.80;;
51995;SDS011;38010;53.264;6.592;2022-07-04T11:17:57;1.83;;;0.90;;
51995;SDS011;38010;53.264;6.592;2022-07-04T11:20:25;2.20;;;0.82;;
51995;SDS011;38010;53.264;6.592;2022-07-04T11:22:53;1.40;;;0.70;;
51995;SDS011;38010;53.264;6.592;2022-07-04T11:25:28;2.00;;;0.90;;
51995;SDS011;38010;53.264;6.592;2022-07-04T11:27:54;3.42;;;0.85;;
51995;SDS011;38010;53.264;6.592;2022-07-04T11:30:20;1.23;;;0.65;;
51995;SDS011;38010;53.264;6.592;2022-07-04T11:32:46;1.90;;;0.70;;
51995;SDS011;38010;53.264;6.592;2022-07-04T11:35:12;2.83;;;0.75;;
51995;SDS011;38010;53.264;6.592;2022-07-04T11:37:37;1.73;;;0.63;;
51995;SDS011;38010;53.264;6.592;2022-07-04T11:40:03;2.53;;;0.70;;
51995;SDS011;38010;53.264;6.592;2022-07-04T11:43:03;1.65;;;0.77;;
51995;SDS011;38010;53.264;6.592;2022-07-04T11:45:49;1.40;;;0.65;;
51995;SDS011;38010;53.264;6.592;2022-07-04T11:48:26;1.23;;;0.70;;
51995;SDS011;38010;53.264;6.592;2022-07-04T11:50:52;1.40;;;0.88;;
51995;SDS011;38010;53.264;6.592;2022-07-04T11:53:18;0.82;;;0.60;;
51995;SDS011;38010;53.264;6.592;2022-07-04T11:55:54;2.85;;;0.80;;
51995;SDS011;38010;53.264;6.592;2022-07-04T11:58:21;2.40;;;0.80;;
51995;SDS011;38010;53.264;6.592;2022-07-04T12:00:50;1.90;;;0.85;;
51995;SDS011;38010;53.264;6.592;2022-07-04T12:03:15;1.63;;;0.60;;
51995;SDS011;38010;53.264;6.592;2022-07-04T12:05:42;0.80;;;0.75;;
51995;SDS011;38010;53.264;6.592;2022-07-04T12:08:08;1.02;;;0.60;;
51995;SDS011;38010;53.264;6.592;2022-07-04T12:10:35;2.13;;;0.73;;
51995;SDS011;38010;53.264;6.592;2022-07-04T12:13:06;1.85;;;0.70;;
51995;SDS011;38010;53.264;6.592;2022-07-04T12:15:40;1.83;;;0.70;;
51995;SDS011;38010;53.264;6.592;2022-07-04T12:18:15;1.10;;;0.60;;
51995;SDS011;38010;53.264;6.592;2022-07-04T12:20:42;1.17;;;0.63;;
51995;SDS011;38010;53.264;6.592;2022-07-04T12:23:08;1.13;;;0.73;;
51995;SDS011;38010;53.264;6.592;2022-07-04T12:25:36;0.65;;;0.55;;
51995;SDS011;38010;53.264;6.592;2022-07-04T12:30:35;1.13;;;0.70;;
51995;SDS011;38010;53.264;6.592;2022-07-04T12:33:05;1.55;;;0.75;;
51995;SDS011;38010;53.264;6.592;2022-07-04T12:35:45;1.25;;;0.70;;
51995;SDS011;38010;53.264;6.592;2022-07-04T12:38:17;2.17;;;0.68;;
51995;SDS011;38010;53.264;6.592;2022-07-04T12:40:58;1.00;;;0.50;;
51995;SDS011;38010;53.264;6.592;2022-07-04T12:46:08;0.80;;;0.50;;
51995;SDS011;38010;53.264;6.592;2022-07-04T12:48:49;1.23;;;0.60;;
51995;SDS011;38010;53.264;6.592;2022-07-04T12:53:52;1.50;;;0.50;;
51995;SDS011;38010;53.264;6.592;2022-07-04T12:56:29;0.90;;;0.55;;
51995;SDS011;38010;53.264;6.592;2022-07-04T12:59:00;0.93;;;0.40;;
51995;SDS011;38010;53.264;6.592;2022-07-04T13:01:29;1.30;;;0.60;;
51995;SDS011;38010;53.264;6.592;2022-07-04T13:03:55;1.10;;;0.57;;
51995;SDS011;38010;53.264;6.592;2022-07-04T13:06:21;1.13;;;0.60;;
51995;SDS011;38010;53.264;6.592;2022-07-04T13:08:47;1.13;;;0.60;;
51995;SDS011;38010;53.264;6.592;2022-07-04T13:11:13;0.93;;;0.70;;
51995;SDS011;38010;53.264;6.592;2022-07-04T13:13:57;0.65;;;0.65;;
51995;SDS011;38010;53.264;6.592;2022-07-04T13:16:23;1.55;;;0.70;;
51995;SDS011;38010;53.264;6.592;2022-07-04T13:18:48;0.75;;;0.50;;
51995;SDS011;38010;53.264;6.592;2022-07-04T13:21:14;2.17;;;0.50;;
51995;SDS011;38010;53.264;6.592;2022-07-04T13:23:40;1.85;;;0.65;;
51995;SDS011;38010;53.264;6.592;2022-07-04T13:26:05;2.40;;;0.70;;
51995;SDS011;38010;53.264;6.592;2022-07-04T13:28:31;1.90;;;0.70;;
51995;SDS011;38010;53.264;6.592;2022-07-04T13:30:57;1.77;;;0.70;;
51995;SDS011;38010;53.264;6.592;2022-07-04T13:33:26;2.75;;;0.65;;
51995;SDS011;38010;53.264;6.592;2022-07-04T13:35:52;1.42;;;0.50;;
51995;SDS011;38010;53.264;6.592;2022-07-04T13:38:18;2.30;;;0.80;;
51995;SDS011;38010;53.264;6.592;2022-07-04T13:40:44;0.90;;;0.50;;
51995;SDS011;38010;53.264;6.592;2022-07-04T13:43:10;2.47;;;0.68;;
51995;SDS011;38010;53.264;6.592;2022-07-04T13:45:40;1.02;;;0.50;;
51995;SDS011;38010;53.264;6.592;2022-07-04T13:48:09;1.98;;;0.90;;
51995;SDS011;38010;53.264;6.592;2022-07-04T13:50:35;1.35;;;0.50;;
51995;SDS011;38010;53.264;6.592;2022-07-04T13:53:03;1.17;;;0.50;;
51995;SDS011;38010;53.264;6.592;2022-07-04T13:55:30;1.50;;;0.70;;
51995;SDS011;38010;53.264;6.592;2022-07-04T13:57:56;0.60;;;0.43;;
51995;SDS011;38010;53.264;6.592;2022-07-04T14:00:21;1.52;;;0.50;;
51995;SDS011;38010;53.264;6.592;2022-07-04T14:02:47;1.65;;;0.40;;
51995;SDS011;38010;53.264;6.592;2022-07-04T14:05:13;3.70;;;0.77;;
51995;SDS011;38010;53.264;6.592;2022-07-04T14:07:38;1.70;;;0.65;;
51995;SDS011;38010;53.264;6.592;2022-07-04T14:10:05;1.25;;;0.70;;
51995;SDS011;38010;53.264;6.592;2022-07-04T14:12:30;1.52;;;0.70;;
51995;SDS011;38010;53.264;6.592;2022-07-04T14:14:56;1.80;;;0.63;;
51995;SDS011;38010;53.264;6.592;2022-07-04T14:17:22;1.83;;;0.95;;
51995;SDS011;38010;53.264;6.592;2022-07-04T14:19:47;1.17;;;0.50;;
51995;SDS011;38010;53.264;6.592;2022-07-04T14:22:13;2.42;;;0.85;;
51995;SDS011;38010;53.264;6.592;2022-07-04T14:24:39;2.08;;;0.50;;
51995;SDS011;38010;53.264;6.592;2022-07-04T14:27:04;2.05;;;0.60;;
51995;SDS011;38010;53.264;6.592;2022-07-04T14:29:30;3.92;;;0.65;;
51995;SDS011;38010;53.264;6.592;2022-07-04T14:31:56;0.88;;;0.47;;
51995;SDS011;38010;53.264;6.592;2022-07-04T14:34:21;0.65;;;0.43;;
51995;SDS011;38010;53.264;6.592;2022-07-04T14:36:48;1.98;;;0.40;;
51995;SDS011;38010;53.264;6.592;2022-07-04T14:39:14;1.55;;;0.45;;
51995;SDS011;38010;53.264;6.592;2022-07-04T14:41:40;1.70;;;0.45;;
51995;SDS011;38010;53.264;6.592;2022-07-04T14:44:05;1.92;;;0.60;;
51995;SDS011;38010;53.264;6.592;2022-07-04T14:46:31;3.75;;;0.55;;
51995;SDS011;38010;53.264;6.592;2022-07-04T14:48:57;1.92;;;0.60;;
51995;SDS011;38010;53.264;6.592;2022-07-04T14:51:23;1.05;;;0.30;;
51995;SDS011;38010;53.264;6.592;2022-07-04T14:53:49;2.22;;;0.40;;
51995;SDS011;38010;53.264;6.592;2022-07-04T14:56:16;1.10;;;0.40;;
51995;SDS011;38010;53.264;6.592;2022-07-04T14:58:42;2.70;;;0.65;;
51995;SDS011;38010;53.264;6.592;2022-07-04T15:01:08;3.15;;;0.52;;
51995;SDS011;38010;53.264;6.592;2022-07-04T15:03:33;0.50;;;0.40;;
51995;SDS011;38010;53.264;6.592;2022-07-04T15:05:59;1.30;;;0.50;;
51995;SDS011;38010;53.264;6.592;2022-07-04T15:08:25;0.98;;;0.50;;
51995;SDS011;38010;53.264;6.592;2022-07-04T15:10:50;1.58;;;0.60;;
51995;SDS011;38010;53.264;6.592;2022-07-04T15:13:16;1.10;;;0.50;;
51995;SDS011;38010;53.264;6.592;2022-07-04T15:15:42;0.40;;;0.40;;
51995;SDS011;38010;53.264;6.592;2022-07-04T15:18:07;1.55;;;0.50;;
51995;SDS011;38010;53.264;6.592;2022-07-04T15:20:33;0.60;;;0.40;;
51995;SDS011;38010;53.264;6.592;2022-07-04T15:23:17;2.03;;;0.40;;
51995;SDS011;38010;53.264;6.592;2022-07-04T15:26:02;0.93;;;0.50;;
51995;SDS011;38010;53.264;6.592;2022-07-04T15:28:28;0.60;;;0.50;;
51995;SDS011;38010;53.264;6.592;2022-07-04T15:30:53;1.98;;;0.40;;
51995;SDS011;38010;53.264;6.592;2022-07-04T15:33:19;0.70;;;0.40;;